sensor_id;sensor_type;location;lat;lon;timestamp;pressure;altitude;pressure_sealevel;temperature;humidity
61478;BME280;47345;52.334;10.392;2023-03-14T00:01:28;98384.90;;;9.71;91.59
61478;BME280;47345;52.334;10.392;2023-03-14T00:03:58;98385.84;;;9.72;91.61
61478;BME280;47345;52.334;10.392;2023-03-14T00:06:29;98392.62;;;9.72;91.62
61478;BME280;47345;52.334;10.392;2023-03-14T00:09:00;98389.94;;;9.72;91.73
61478;BME280;47345;52.334;10.392;2023-03-14T00:11:31;98364.77;;;9.74;91.77
61478;BME280;47345;52.334;10.392;2023-03-14T00:14:02;98349.75;;;9.74;91.67
61478;BME280;47345;52.334;10.392;2023-03-14T00:16:32;98341.78;;;9.74;91.74
61478;BME280;47345;52.334;10.392;2023-03-14T00:19:03;98330.91;;;9.74;91.80
61478;BME280;47345;52.334;10.392;2023-03-14T00:21:34;98328.20;;;9.73;91.82
61478;BME280;47345;52.334;10.392;2023-03-14T00:24:05;98331.69;;;9.73;91.98
61478;BME280;47345;52.334;10.392;2023-03-14T00:26:36;98338.73;;;9.74;92.19
61478;BME280;47345;52.334;10.392;2023-03-14T00:29:07;98332.41;;;9.74;92.30
61478;BME280;47345;52.334;10.392;2023-03-14T00:31:37;98318.55;;;9.76;92.34
61478;BME280;47345;52.334;10.392;2023-03-14T00:34:09;98302.72;;;9.77;92.34
61478;BME280;47345;52.334;10.392;2023-03-14T00:36:39;98310.69;;;9.77;92.26
61478;BME280;47345;52.334;10.392;2023-03-14T00:39:10;98340.02;;;9.77;92.38
61478;BME280;47345;52.334;10.392;2023-03-14T00:41:41;98352.52;;;9.78;92.44
61478;BME280;47345;52.334;10.392;2023-03-14T00:44:11;98345.17;;;9.75;92.44
61478;BME280;47345;52.334;10.392;2023-03-14T00:46:42;98349.45;;;9.76;92.44
61478;BME280;47345;52.334;10.392;2023-03-14T00:49:13;98353.27;;;9.76;92.50
61478;BME280;47345;52.334;10.392;2023-03-14T00:51:44;98361.35;;;9.75;92.47
61478;BME280;47345;52.334;10.392;2023-03-14T00:54:15;98355.23;;;9.75;92.39
61478;BME280;47345;52.334;10.392;2023-03-14T00:56:45;98349.87;;;9.74;92.41
61478;BME280;47345;52.334;10.392;2023-03-14T00:59:16;98375.70;;;9.74;92.53
61478;BME280;47345;52.334;10.392;2023-03-14T01:01:47;98391.32;;;9.74;92.41
61478;BME280;47345;52.334;10.392;2023-03-14T01:04:18;98385.56;;;9.72;92.35
61478;BME280;47345;52.334;10.392;2023-03-14T01:06:48;98385.99;;;9.71;92.31
61478;BME280;47345;52.334;10.392;2023-03-14T01:09:19;98377.14;;;9.70;92.29
61478;BME280;47345;52.334;10.392;2023-03-14T01:11:50;98364.42;;;9.69;92.24
61478;BME280;47345;52.334;10.392;2023-03-14T01:14:22;98362.38;;;9.68;92.26
61478;BME280;47345;52.334;10.392;2023-03-14T01:16:52;98353.16;;;9.68;92.24
61478;BME280;47345;52.334;10.392;2023-03-14T01:19:23;98345.66;;;9.68;92.24
61478;BME280;47345;52.334;10.392;2023-03-14T01:21:53;98333.27;;;9.67;92.16
61478;BME280;47345;52.334;10.392;2023-03-14T01:24:24;98332.28;;;9.67;92.06
61478;BME280;47345;52.334;10.392;2023-03-14T01:26:55;98334.52;;;9.65;92.01
61478;BME280;47345;52.334;10.392;2023-03-14T01:29:25;98337.01;;;9.64;92.08
61478;BME280;47345;52.334;10.392;2023-03-14T01:31:56;98345.73;;;9.63;91.97
61478;BME280;47345;52.334;10.392;2023-03-14T01:34:27;98336.55;;;9.61;92.02
61478;BME280;47345;52.334;10.392;2023-03-14T01:36:58;98312.80;;;9.59;91.93
61478;BME280;47345;52.334;10.392;2023-03-14T01:39:29;98293.34;;;9.58;92.10
61478;BME280;47345;52.334;10.392;2023-03-14T01:42:01;98279.37;;;9.58;92.04
61478;BME280;47345;52.334;10.392;2023-03-14T01:44:49;98276.74;;;9.57;92.01
61478;BME280;47345;52.334;10.392;2023-03-14T01:47:20;98265.34;;;9.57;91.95
61478;BME280;47345;52.334;10.392;2023-03-14T01:49:53;98275.71;;;9.58;92.04
61478;BME280;47345;52.334;10.392;2023-03-14T01:52:29;98291.11;;;9.59;91.97
61478;BME280;47345;52.334;10.392;2023-03-14T01:55:04;98312.69;;;9.61;91.95
61478;BME280;47345;52.334;10.392;2023-03-14T01:57:39;98325.80;;;9.61;91.90
61478;BME280;47345;52.334;10.392;2023-03-14T02:00:15;98313.57;;;9.61;91.73
61478;BME280;47345;52.334;10.392;2023-03-14T02:02:50;98299.77;;;9.61;91.63
61478;BME280;47345;52.334;10.392;2023-03-14T02:05:24;98288.78;;;9.60;91.51
61478;BME280;47345;52.334;10.392;2023-03-14T02:07:57;98290.90;;;9.59;91.38
61478;BME280;47345;52.334;10.392;2023-03-14T02:10:30;98280.90;;;9.59;91.33
61478;BME280;47345;52.334;10.392;2023-03-14T02:13:04;98281.13;;;9.59;91.10
61478;BME280;47345;52.334;10.392;2023-03-14T02:15:36;98270.42;;;9.59;90.98
61478;BME280;47345;52.334;10.392;2023-03-14T02:18:08;98264.04;;;9.59;90.80
61478;BME280;47345;52.334;10.392;2023-03-14T02:20:42;98257.54;;;9.59;90.58
61478;BME280;47345;52.334;10.392;2023-03-14T02:23:17;98260.11;;;9.59;90.54
61478;BME280;47345;52.334;10.392;2023-03-14T02:25:53;98256.94;;;9.58;90.33
61478;BME280;47345;52.334;10.392;2023-03-14T02:28:28;98260.91;;;9.58;90.11
61478;BME280;47345;52.334;10.392;2023-03-14T02:30:59;98260.43;;;9.58;89.97
61478;BME280;47345;52.334;10.392;2023-03-14T02:33:30;98258.50;;;9.57;89.78
61478;BME280;47345;52.334;10.392;2023-03-14T02:36:03;98270.58;;;9.58;89.48
61478;BME280;47345;52.334;10.392;2023-03-14T02:38:38;98273.37;;;9.59;89.25
61478;BME280;47345;52.334;10.392;2023-03-14T02:41:10;98277.97;;;9.60;89.06
61478;BME280;47345;52.334;10.392;2023-03-14T02:43:40;98284.58;;;9.60;88.91
61478;BME280;47345;52.334;10.392;2023-03-14T02:46:13;98283.33;;;9.61;88.64
61478;BME280;47345;52.334;10.392;2023-03-14T02:48:47;98274.48;;;9.62;88.63
61478;BME280;47345;52.334;10.392;2023-03-14T02:51:20;98271.82;;;9.62;88.41
61478;BME280;47345;52.334;10.392;2023-03-14T02:53:51;98275.58;;;9.62;88.20
61478;BME280;47345;52.334;10.392;2023-03-14T02:56:22;98269.73;;;9.61;88.13
61478;BME280;47345;52.334;10.392;2023-03-14T02:58:53;98264.98;;;9.60;88.04
61478;BME280;47345;52.334;10.392;2023-03-14T03:01:23;98261.36;;;9.58;87.97
61478;BME280;47345;52.334;10.392;2023-03-14T03:03:54;98260.52;;;9.56;87.94
61478;BME280;47345;52.334;10.392;2023-03-14T03:06:25;98260.24;;;9.54;87.86
61478;BME280;47345;52.334;10.392;2023-03-14T03:08:56;98258.42;;;9.52;87.69
61478;BME280;47345;52.334;10.392;2023-03-14T03:11:26;98248.09;;;9.48;87.79
61478;BME280;47345;52.334;10.392;2023-03-14T03:13:56;98240.70;;;9.45;87.80
61478;BME280;47345;52.334;10.392;2023-03-14T03:16:27;98240.14;;;9.43;87.75
61478;BME280;47345;52.334;10.392;2023-03-14T03:18:58;98238.87;;;9.41;87.77
61478;BME280;47345;52.334;10.392;2023-03-14T03:21:29;98233.73;;;9.39;87.65
61478;BME280;47345;52.334;10.392;2023-03-14T03:23:59;98230.49;;;9.38;87.63
61478;BME280;47345;52.334;10.392;2023-03-14T03:26:30;98226.71;;;9.37;87.55
61478;BME280;47345;52.334;10.392;2023-03-14T03:29:00;98231.40;;;9.35;87.56
61478;BME280;47345;52.334;10.392;2023-03-14T03:31:31;98229.80;;;9.34;87.52
61478;BME280;47345;52.334;10.392;2023-03-14T03:34:01;98229.02;;;9.33;87.58
61478;BME280;47345;52.334;10.392;2023-03-14T03:36:32;98225.96;;;9.31;87.50
61478;BME280;47345;52.334;10.392;2023-03-14T03:39:02;98215.86;;;9.30;87.48
61478;BME280;47345;52.334;10.392;2023-03-14T03:41:33;98208.69;;;9.28;87.51
61478;BME280;47345;52.334;10.392;2023-03-14T03:44:03;98202.19;;;9.25;87.44
61478;BME280;47345;52.334;10.392;2023-03-14T03:46:34;98203.31;;;9.23;87.51
61478;BME280;47345;52.334;10.392;2023-03-14T03:49:05;98206.73;;;9.20;87.43
61478;BME280;47345;52.334;10.392;2023-03-14T03:51:36;98208.71;;;9.17;87.33
61478;BME280;47345;52.334;10.392;2023-03-14T03:54:06;98211.80;;;9.14;87.22
61478;BME280;47345;52.334;10.392;2023-03-14T03:56:37;98217.02;;;9.11;87.12
61478;BME280;47345;52.334;10.392;2023-03-14T03:59:07;98219.11;;;9.08;87.18
61478;BME280;47345;52.334;10.392;2023-03-14T04:01:38;98220.23;;;9.06;87.11
61478;BME280;47345;52.334;10.392;2023-03-14T04:04:09;98220.70;;;9.03;87.27
61478;BME280;47345;52.334;10.392;2023-03-14T04:06:40;98214.64;;;9.01;87.23
61478;BME280;47345;52.334;10.392;2023-03-14T04:09:11;98207.23;;;9.00;87.17
61478;BME280;47345;52.334;10.392;2023-03-14T04:11:42;98207.27;;;8.98;87.12
61478;BME280;47345;52.334;10.392;2023-03-14T04:14:13;98208.45;;;8.96;87.19
61478;BME280;47345;52.334;10.392;2023-03-14T04:16:44;98210.90;;;8.96;87.16
61478;BME280;47345;52.334;10.392;2023-03-14T04:19:15;98213.23;;;8.95;86.99
61478;BME280;47345;52.334;10.392;2023-03-14T04:21:46;98215.84;;;8.94;87.03
61478;BME280;47345;52.334;10.392;2023-03-14T04:24:16;98217.59;;;8.95;87.21
61478;BME280;47345;52.334;10.392;2023-03-14T04:26:47;98221.36;;;8.96;87.09
61478;BME280;47345;52.334;10.392;2023-03-14T04:29:17;98226.99;;;8.98;87.22
61478;BME280;47345;52.334;10.392;2023-03-14T04:31:48;98231.00;;;9.01;87.23
61478;BME280;47345;52.334;10.392;2023-03-14T04:34:19;98237.36;;;9.05;87.18
61478;BME280;47345;52.334;10.392;2023-03-14T04:36:49;98239.84;;;9.08;87.13
61478;BME280;47345;52.334;10.392;2023-03-14T04:39:20;98244.07;;;9.12;87.19
61478;BME280;47345;52.334;10.392;2023-03-14T04:41:51;98245.54;;;9.16;87.52
61478;BME280;47345;52.334;10.392;2023-03-14T04:44:21;98232.85;;;9.19;87.62
61478;BME280;47345;52.334;10.392;2023-03-14T04:46:52;98227.52;;;9.20;87.87
61478;BME280;47345;52.334;10.392;2023-03-14T04:49:23;98225.33;;;9.21;87.91
61478;BME280;47345;52.334;10.392;2023-03-14T04:51:53;98210.71;;;9.21;87.78
61478;BME280;47345;52.334;10.392;2023-03-14T04:54:24;98200.40;;;9.20;87.52
61478;BME280;47345;52.334;10.392;2023-03-14T04:56:54;98202.08;;;9.19;87.45
61478;BME280;47345;52.334;10.392;2023-03-14T04:59:26;98202.48;;;9.17;87.56
61478;BME280;47345;52.334;10.392;2023-03-14T05:01:56;98194.35;;;9.14;87.51
61478;BME280;47345;52.334;10.392;2023-03-14T05:04:27;98203.48;;;9.10;87.50
61478;BME280;47345;52.334;10.392;2023-03-14T05:06:58;98198.86;;;9.07;87.69
61478;BME280;47345;52.334;10.392;2023-03-14T05:09:29;98196.70;;;9.01;87.73
61478;BME280;47345;52.334;10.392;2023-03-14T05:11:59;98194.05;;;8.97;87.93
61478;BME280;47345;52.334;10.392;2023-03-14T05:14:30;98197.49;;;8.92;87.98
61478;BME280;47345;52.334;10.392;2023-03-14T05:17:01;98202.96;;;8.88;88.07
61478;BME280;47345;52.334;10.392;2023-03-14T05:19:32;98199.04;;;8.83;88.17
61478;BME280;47345;52.334;10.392;2023-03-14T05:22:04;98199.61;;;8.79;88.27
61478;BME280;47345;52.334;10.392;2023-03-14T05:24:35;98205.63;;;8.76;88.15
61478;BME280;47345;52.334;10.392;2023-03-14T05:27:06;98213.66;;;8.72;88.21
61478;BME280;47345;52.334;10.392;2023-03-14T05:29:37;98202.56;;;8.69;88.21
61478;BME280;47345;52.334;10.392;2023-03-14T05:32:08;98200.42;;;8.67;88.06
61478;BME280;47345;52.334;10.392;2023-03-14T05:34:38;98197.79;;;8.64;87.90
61478;BME280;47345;52.334;10.392;2023-03-14T05:37:09;98198.52;;;8.62;87.79
61478;BME280;47345;52.334;10.392;2023-03-14T05:39:40;98191.52;;;8.59;87.75
61478;BME280;47345;52.334;10.392;2023-03-14T05:42:11;98185.01;;;8.57;87.79
61478;BME280;47345;52.334;10.392;2023-03-14T05:44:42;98176.82;;;8.55;87.82
61478;BME280;47345;52.334;10.392;2023-03-14T05:47:13;98167.12;;;8.56;87.83
61478;BME280;47345;52.334;10.392;2023-03-14T05:49:44;98167.77;;;8.56;87.91
61478;BME280;47345;52.334;10.392;2023-03-14T05:52:15;98166.04;;;8.57;87.85
61478;BME280;47345;52.334;10.392;2023-03-14T05:54:46;98172.75;;;8.58;87.83
61478;BME280;47345;52.334;10.392;2023-03-14T05:57:16;98176.34;;;8.59;87.75
61478;BME280;47345;52.334;10.392;2023-03-14T05:59:47;98185.30;;;8.58;87.63
61478;BME280;47345;52.334;10.392;2023-03-14T06:02:18;98193.69;;;8.58;87.59
61478;BME280;47345;52.334;10.392;2023-03-14T06:04:48;98198.95;;;8.57;87.53
61478;BME280;47345;52.334;10.392;2023-03-14T06:07:18;98194.85;;;8.55;87.49
61478;BME280;47345;52.334;10.392;2023-03-14T06:09:49;98189.43;;;8.54;87.38
61478;BME280;47345;52.334;10.392;2023-03-14T06:12:19;98188.58;;;8.53;87.54
61478;BME280;47345;52.334;10.392;2023-03-14T06:14:50;98188.52;;;8.54;87.67
61478;BME280;47345;52.334;10.392;2023-03-14T06:17:20;98186.45;;;8.55;87.83
61478;BME280;47345;52.334;10.392;2023-03-14T06:19:51;98185.59;;;8.56;87.84
61478;BME280;47345;52.334;10.392;2023-03-14T06:22:21;98187.42;;;8.59;87.88
61478;BME280;47345;52.334;10.392;2023-03-14T06:24:52;98189.13;;;8.60;87.62
61478;BME280;47345;52.334;10.392;2023-03-14T06:27:22;98192.96;;;8.62;87.76
61478;BME280;47345;52.334;10.392;2023-03-14T06:29:53;98197.81;;;8.63;87.68
61478;BME280;47345;52.334;10.392;2023-03-14T06:32:24;98198.60;;;8.65;87.50
61478;BME280;47345;52.334;10.392;2023-03-14T06:34:54;98192.80;;;8.67;87.38
61478;BME280;47345;52.334;10.392;2023-03-14T06:37:26;98200.94;;;8.69;87.34
61478;BME280;47345;52.334;10.392;2023-03-14T06:39:56;98215.40;;;8.71;87.31
61478;BME280;47345;52.334;10.392;2023-03-14T06:42:27;98222.23;;;8.74;86.94
61478;BME280;47345;52.334;10.392;2023-03-14T06:44:58;98228.94;;;8.79;87.07
61478;BME280;47345;52.334;10.392;2023-03-14T06:47:29;98229.06;;;8.86;87.25
61478;BME280;47345;52.334;10.392;2023-03-14T06:49:59;98230.40;;;8.93;87.29
61478;BME280;47345;52.334;10.392;2023-03-14T06:52:29;98228.77;;;9.02;86.93
61478;BME280;47345;52.334;10.392;2023-03-14T06:55:01;98225.34;;;9.09;86.53
61478;BME280;47345;52.334;10.392;2023-03-14T06:57:31;98224.30;;;9.16;86.41
61478;BME280;47345;52.334;10.392;2023-03-14T07:00:02;98227.54;;;9.23;86.13
61478;BME280;47345;52.334;10.392;2023-03-14T07:02:33;98230.58;;;9.29;85.98
61478;BME280;47345;52.334;10.392;2023-03-14T07:05:11;98230.39;;;9.33;85.78
61478;BME280;47345;52.334;10.392;2023-03-14T07:07:42;98233.04;;;9.37;85.54
61478;BME280;47345;52.334;10.392;2023-03-14T07:10:13;98237.02;;;9.42;85.26
61478;BME280;47345;52.334;10.392;2023-03-14T07:12:43;98236.23;;;9.47;84.55
61478;BME280;47345;52.334;10.392;2023-03-14T07:15:14;98239.77;;;9.52;84.38
61478;BME280;47345;52.334;10.392;2023-03-14T07:17:47;98240.94;;;9.57;84.10
61478;BME280;47345;52.334;10.392;2023-03-14T07:20:18;98237.16;;;9.63;84.12
61478;BME280;47345;52.334;10.392;2023-03-14T07:22:50;98228.63;;;9.69;83.98
61478;BME280;47345;52.334;10.392;2023-03-14T07:25:21;98231.66;;;9.74;84.04
61478;BME280;47345;52.334;10.392;2023-03-14T07:27:52;98224.64;;;9.78;84.13
61478;BME280;47345;52.334;10.392;2023-03-14T07:30:22;98228.71;;;9.83;84.12
61478;BME280;47345;52.334;10.392;2023-03-14T07:32:53;98221.41;;;9.87;83.99
61478;BME280;47345;52.334;10.392;2023-03-14T07:35:23;98222.33;;;9.94;84.09
61478;BME280;47345;52.334;10.392;2023-03-14T07:37:54;98221.16;;;9.99;84.11
61478;BME280;47345;52.334;10.392;2023-03-14T07:40:25;98221.83;;;10.03;83.99
61478;BME280;47345;52.334;10.392;2023-03-14T07:42:56;98223.97;;;10.08;83.85
61478;BME280;47345;52.334;10.392;2023-03-14T07:45:27;98232.07;;;10.11;83.76
61478;BME280;47345;52.334;10.392;2023-03-14T07:47:58;98234.60;;;10.15;83.79
61478;BME280;47345;52.334;10.392;2023-03-14T07:50:29;98229.65;;;10.19;83.87
61478;BME280;47345;52.334;10.392;2023-03-14T07:52:59;98228.31;;;10.22;83.77
61478;BME280;47345;52.334;10.392;2023-03-14T07:55:30;98233.00;;;10.24;83.85
61478;BME280;47345;52.334;10.392;2023-03-14T07:58:00;98225.10;;;10.27;83.98
61478;BME280;47345;52.334;10.392;2023-03-14T08:00:31;98225.00;;;10.30;84.23
61478;BME280;47345;52.334;10.392;2023-03-14T08:03:01;98222.06;;;10.32;84.20
61478;BME280;47345;52.334;10.392;2023-03-14T08:05:35;98222.95;;;10.36;84.38
61478;BME280;47345;52.334;10.392;2023-03-14T08:08:06;98221.79;;;10.40;84.45
61478;BME280;47345;52.334;10.392;2023-03-14T08:10:37;98215.86;;;10.46;84.37
61478;BME280;47345;52.334;10.392;2023-03-14T08:13:08;98217.35;;;10.52;84.29
61478;BME280;47345;52.334;10.392;2023-03-14T08:15:39;98207.46;;;10.57;84.16
61478;BME280;47345;52.334;10.392;2023-03-14T08:18:10;98205.94;;;10.63;84.11
61478;BME280;47345;52.334;10.392;2023-03-14T08:20:41;98201.80;;;10.70;83.83
61478;BME280;47345;52.334;10.392;2023-03-14T08:23:12;98197.76;;;10.75;83.80
61478;BME280;47345;52.334;10.392;2023-03-14T08:25:42;98197.45;;;10.80;83.82
61478;BME280;47345;52.334;10.392;2023-03-14T08:28:13;98197.63;;;10.85;83.70
61478;BME280;47345;52.334;10.392;2023-03-14T08:30:43;98197.61;;;10.88;83.72
61478;BME280;47345;52.334;10.392;2023-03-14T08:33:16;98195.16;;;10.91;83.49
61478;BME280;47345;52.334;10.392;2023-03-14T08:35:46;98195.27;;;10.93;83.27
61478;BME280;47345;52.334;10.392;2023-03-14T08:38:17;98193.52;;;10.96;82.98
61478;BME280;47345;52.334;10.392;2023-03-14T08:40:48;98192.87;;;10.97;82.53
61478;BME280;47345;52.334;10.392;2023-03-14T08:43:19;98193.42;;;10.98;82.65
61478;BME280;47345;52.334;10.392;2023-03-14T08:45:50;98200.63;;;10.98;82.40
61478;BME280;47345;52.334;10.392;2023-03-14T08:48:20;98197.52;;;10.98;82.39
61478;BME280;47345;52.334;10.392;2023-03-14T08:50:51;98200.42;;;10.98;82.26
61478;BME280;47345;52.334;10.392;2023-03-14T08:53:22;98207.10;;;10.98;82.39
61478;BME280;47345;52.334;10.392;2023-03-14T08:55:55;98203.86;;;10.98;82.56
61478;BME280;47345;52.334;10.392;2023-03-14T08:58:27;98204.25;;;11.00;82.67
61478;BME280;47345;52.334;10.392;2023-03-14T09:00:59;98203.48;;;11.01;82.85
61478;BME280;47345;52.334;10.392;2023-03-14T09:03:29;98210.65;;;11.02;82.86
61478;BME280;47345;52.334;10.392;2023-03-14T09:06:04;98223.34;;;11.03;82.96
61478;BME280;47345;52.334;10.392;2023-03-14T09:08:36;98222.96;;;11.01;83.47
61478;BME280;47345;52.334;10.392;2023-03-14T09:11:09;98227.61;;;11.00;84.50
61478;BME280;47345;52.334;10.392;2023-03-14T09:13:40;98226.46;;;11.00;85.21
61478;BME280;47345;52.334;10.392;2023-03-14T09:16:11;98228.70;;;10.97;85.63
61478;BME280;47345;52.334;10.392;2023-03-14T09:18:42;98230.95;;;10.96;85.97
61478;BME280;47345;52.334;10.392;2023-03-14T09:21:12;98232.10;;;10.95;85.99
61478;BME280;47345;52.334;10.392;2023-03-14T09:23:43;98230.49;;;10.93;86.08
61478;BME280;47345;52.334;10.392;2023-03-14T09:26:15;98232.68;;;10.94;86.29
61478;BME280;47345;52.334;10.392;2023-03-14T09:28:45;98227.66;;;10.97;86.19
61478;BME280;47345;52.334;10.392;2023-03-14T09:31:16;98227.95;;;11.01;86.12
61478;BME280;47345;52.334;10.392;2023-03-14T09:33:47;98225.59;;;11.04;85.99
61478;BME280;47345;52.334;10.392;2023-03-14T09:36:18;98224.51;;;11.08;85.68
61478;BME280;47345;52.334;10.392;2023-03-14T09:38:49;98223.14;;;11.12;85.73
61478;BME280;47345;52.334;10.392;2023-03-14T09:41:23;98224.16;;;11.19;85.74
61478;BME280;47345;52.334;10.392;2023-03-14T09:43:58;98219.19;;;11.28;85.94
61478;BME280;47345;52.334;10.392;2023-03-14T09:46:34;98216.77;;;11.37;85.84
61478;BME280;47345;52.334;10.392;2023-03-14T09:49:11;98221.05;;;11.45;84.87
61478;BME280;47345;52.334;10.392;2023-03-14T09:51:42;98216.93;;;11.49;84.52
61478;BME280;47345;52.334;10.392;2023-03-14T09:54:26;98214.36;;;11.54;84.22
61478;BME280;47345;52.334;10.392;2023-03-14T09:57:00;98214.09;;;11.56;83.66
61478;BME280;47345;52.334;10.392;2023-03-14T09:59:32;98211.45;;;11.57;83.19
61478;BME280;47345;52.334;10.392;2023-03-14T10:02:14;98209.31;;;11.60;83.22
61478;BME280;47345;52.334;10.392;2023-03-14T10:04:48;98208.92;;;11.65;82.65
61478;BME280;47345;52.334;10.392;2023-03-14T10:07:25;98210.70;;;11.69;82.25
61478;BME280;47345;52.334;10.392;2023-03-14T10:09:58;98208.12;;;11.75;81.92
61478;BME280;47345;52.334;10.392;2023-03-14T10:12:37;98198.95;;;11.85;81.70
61478;BME280;47345;52.334;10.392;2023-03-14T10:15:11;98200.57;;;11.93;80.98
61478;BME280;47345;52.334;10.392;2023-03-14T10:17:46;98199.98;;;12.01;80.54
61478;BME280;47345;52.334;10.392;2023-03-14T10:20:32;98203.24;;;12.07;80.16
61478;BME280;47345;52.334;10.392;2023-03-14T10:23:05;98216.33;;;12.10;80.43
61478;BME280;47345;52.334;10.392;2023-03-14T10:25:38;98220.29;;;12.11;80.21
61478;BME280;47345;52.334;10.392;2023-03-14T10:28:24;98211.91;;;12.09;79.77
61478;BME280;47345;52.334;10.392;2023-03-14T10:30:56;98219.48;;;12.07;79.85
61478;BME280;47345;52.334;10.392;2023-03-14T10:33:29;98221.61;;;12.01;79.68
61478;BME280;47345;52.334;10.392;2023-03-14T10:36:03;98224.58;;;11.96;80.26
61478;BME280;47345;52.334;10.392;2023-03-14T10:38:35;98239.10;;;11.90;80.82
61478;BME280;47345;52.334;10.392;2023-03-14T10:41:17;98240.42;;;11.87;81.03
61478;BME280;47345;52.334;10.392;2023-03-14T10:43:51;98241.95;;;11.85;80.91
61478;BME280;47345;52.334;10.392;2023-03-14T10:46:26;98237.14;;;11.86;81.23
61478;BME280;47345;52.334;10.392;2023-03-14T10:48:57;98238.89;;;11.84;81.07
61478;BME280;47345;52.334;10.392;2023-03-14T10:51:28;98236.70;;;11.82;81.08
61478;BME280;47345;52.334;10.392;2023-03-14T10:54:01;98237.58;;;11.82;81.60
61478;BME280;47345;52.334;10.392;2023-03-14T10:56:36;98234.23;;;11.85;81.77
61478;BME280;47345;52.334;10.392;2023-03-14T10:59:14;98231.00;;;11.91;81.97
61478;BME280;47345;52.334;10.392;2023-03-14T11:01:50;98228.23;;;11.96;81.80
61478;BME280;47345;52.334;10.392;2023-03-14T11:04:47;98224.23;;;11.99;81.64
61478;BME280;47345;52.334;10.392;2023-03-14T11:07:27;98229.52;;;12.00;81.82
61478;BME280;47345;52.334;10.392;2023-03-14T11:10:03;98229.23;;;12.00;82.03
61478;BME280;47345;52.334;10.392;2023-03-14T11:12:44;98233.08;;;12.03;82.10
61478;BME280;47345;52.334;10.392;2023-03-14T11:15:23;98231.20;;;12.08;81.99
61478;BME280;47345;52.334;10.392;2023-03-14T11:18:13;98233.98;;;12.12;81.11
61478;BME280;47345;52.334;10.392;2023-03-14T11:20:51;98233.96;;;12.18;80.87
61478;BME280;47345;52.334;10.392;2023-03-14T11:23:25;98234.04;;;12.21;80.45
61478;BME280;47345;52.334;10.392;2023-03-14T11:26:05;98231.35;;;12.23;79.66
61478;BME280;47345;52.334;10.392;2023-03-14T11:28:40;98232.11;;;12.24;79.47
61478;BME280;47345;52.334;10.392;2023-03-14T11:31:18;98231.78;;;12.25;79.24
61478;BME280;47345;52.334;10.392;2023-03-14T11:33:56;98225.43;;;12.24;79.00
61478;BME280;47345;52.334;10.392;2023-03-14T11:36:31;98227.23;;;12.26;78.90
61478;BME280;47345;52.334;10.392;2023-03-14T11:39:03;98226.19;;;12.28;78.81
61478;BME280;47345;52.334;10.392;2023-03-14T11:41:40;98221.67;;;12.29;78.92
61478;BME280;47345;52.334;10.392;2023-03-14T11:44:19;98220.23;;;12.33;79.85
61478;BME280;47345;52.334;10.392;2023-03-14T11:46:52;98222.26;;;12.36;80.25
61478;BME280;47345;52.334;10.392;2023-03-14T11:49:34;98223.57;;;12.36;80.23
61478;BME280;47345;52.334;10.392;2023-03-14T11:52:12;98220.08;;;12.35;80.85
61478;BME280;47345;52.334;10.392;2023-03-14T11:54:46;98233.29;;;12.34;81.32
61478;BME280;47345;52.334;10.392;2023-03-14T11:57:20;98222.32;;;12.34;81.78
61478;BME280;47345;52.334;10.392;2023-03-14T11:59:55;98219.52;;;12.34;82.04
61478;BME280;47345;52.334;10.392;2023-03-14T12:02:35;98224.36;;;12.34;82.12
61478;BME280;47345;52.334;10.392;2023-03-14T12:05:36;98221.61;;;12.35;82.08
61478;BME280;47345;52.334;10.392;2023-03-14T12:08:41;98247.16;;;12.32;81.18
61478;BME280;47345;52.334;10.392;2023-03-14T12:11:25;98351.59;;;11.82;76.75
61478;BME280;47345;52.334;10.392;2023-03-14T12:13:57;98352.47;;;10.92;80.14
61478;BME280;47345;52.334;10.392;2023-03-14T12:16:34;98361.13;;;10.05;83.05
61478;BME280;47345;52.334;10.392;2023-03-14T12:19:33;98377.98;;;9.32;86.91
61478;BME280;47345;52.334;10.392;2023-03-14T12:24:56;98405.48;;;8.26;92.04
61478;BME280;47345;52.334;10.392;2023-03-14T12:27:47;98419.80;;;7.97;94.21
61478;BME280;47345;52.334;10.392;2023-03-14T12:30:25;98428.38;;;7.73;96.22
61478;BME280;47345;52.334;10.392;2023-03-14T12:33:26;98437.68;;;7.52;97.50
61478;BME280;47345;52.334;10.392;2023-03-14T12:36:10;98451.65;;;7.35;99.35
61478;BME280;47345;52.334;10.392;2023-03-14T12:42:07;98488.81;;;6.99;100.00
61478;BME280;47345;52.334;10.392;2023-03-14T12:44:55;98504.33;;;6.80;100.00
61478;BME280;47345;52.334;10.392;2023-03-14T12:47:52;98522.52;;;6.48;100.00
61478;BME280;47345;52.334;10.392;2023-03-14T12:50:30;98526.77;;;6.24;100.00
61478;BME280;47345;52.334;10.392;2023-03-14T12:56:40;98560.48;;;5.89;100.00
61478;BME280;47345;52.334;10.392;2023-03-14T12:59:30;98567.15;;;5.74;100.00
61478;BME280;47345;52.334;10.392;2023-03-14T13:02:19;98581.54;;;5.63;100.00
61478;BME280;47345;52.334;10.392;2023-03-14T13:04:52;98603.88;;;5.51;100.00
61478;BME280;47345;52.334;10.392;2023-03-14T13:07:35;98618.05;;;5.37;100.00
61478;BME280;47345;52.334;10.392;2023-03-14T13:10:26;98643.87;;;5.22;100.00
61478;BME280;47345;52.334;10.392;2023-03-14T13:13:15;98655.36;;;5.10;100.00
61478;BME280;47345;52.334;10.392;2023-03-14T13:15:48;98663.34;;;4.98;100.00
61478;BME280;47345;52.334;10.392;2023-03-14T13:18:26;98681.26;;;4.89;100.00
61478;BME280;47345;52.334;10.392;2023-03-14T13:21:01;98676.20;;;4.80;100.00
61478;BME280;47345;52.334;10.392;2023-03-14T13:23:34;98681.36;;;4.76;100.00
61478;BME280;47345;52.334;10.392;2023-03-14T13:26:13;98711.38;;;4.70;100.00
61478;BME280;47345;52.334;10.392;2023-03-14T13:28:44;98724.60;;;4.66;100.00
61478;BME280;47345;52.334;10.392;2023-03-14T13:31:22;98728.11;;;4.65;100.00
61478;BME280;47345;52.334;10.392;2023-03-14T13:34:00;98743.59;;;4.61;100.00
61478;BME280;47345;52.334;10.392;2023-03-14T13:36:31;98741.17;;;4.56;100.00